sensor_id;sensor_type;location;lat;lon;timestamp;P1;durP1;ratioP1;P2;durP2;ratioP2
3589;SDS011;1809;48.470;9.226;2022-12-07T00:01:25;9.30;;;7.57;;
3589;SDS011;1809;48.470;9.226;2022-12-07T00:03:55;10.13;;;7.63;;
3589;SDS011;1809;48.470;9.226;2022-12-07T00:06:28;9.60;;;6.70;;
3589;SDS011;1809;48.470;9.226;2022-12-07T00:08:54;10.43;;;7.33;;
3589;SDS011;1809;48.470;9.226;2022-12-07T00:11:20;12.87;;;7.63;;
3589;SDS011;1809;48.470;9.226;2022-12-07T00:13:47;9.63;;;6.77;;
3589;SDS011;1809;48.470;9.226;2022-12-07T00:16:18;7.93;;;7.13;;
3589;SDS011;1809;48.470;9.226;2022-12-07T00:18:44;12.57;;;7.30;;
3589;SDS011;1809;48.470;9.226;2022-12-07T00:21:11;10.80;;;7.37;;
3589;SDS011;1809;48.470;9.226;2022-12-07T00:23:39;10.53;;;7.47;;
3589;SDS011;1809;48.470;9.226;2022-12-07T00:26:09;9.67;;;6.50;;
3589;SDS011;1809;48.470;9.226;2022-12-07T00:28:37;9.90;;;7.23;;
3589;SDS011;1809;48.470;9.226;2022-12-07T00:31:07;13.30;;;7.70;;
3589;SDS011;1809;48.470;9.226;2022-12-07T00:33:34;19.00;;;7.80;;
3589;SDS011;1809;48.470;9.226;2022-12-07T00:36:00;9.87;;;7.67;;
3589;SDS011;1809;48.470;9.226;2022-12-07T00:38:30;9.03;;;7.40;;
3589;SDS011;1809;48.470;9.226;2022-12-07T00:40:57;16.07;;;8.13;;
3589;SDS011;1809;48.470;9.226;2022-12-07T00:43:27;11.47;;;8.00;;
3589;SDS011;1809;48.470;9.226;2022-12-07T00:45:53;8.63;;;6.97;;
3589;SDS011;1809;48.470;9.226;2022-12-07T00:48:19;12.40;;;8.43;;
3589;SDS011;1809;48.470;9.226;2022-12-07T00:50:45;11.90;;;7.87;;
3589;SDS011;1809;48.470;9.226;2022-12-07T00:53:11;10.00;;;7.53;;
3589;SDS011;1809;48.470;9.226;2022-12-07T00:55:36;12.00;;;7.10;;
3589;SDS011;1809;48.470;9.226;2022-12-07T00:58:02;9.63;;;6.90;;
3589;SDS011;1809;48.470;9.226;2022-12-07T01:00:28;11.67;;;7.23;;
3589;SDS011;1809;48.470;9.226;2022-12-07T01:02:54;8.20;;;6.33;;
3589;SDS011;1809;48.470;9.226;2022-12-07T01:05:19;9.77;;;5.93;;
3589;SDS011;1809;48.470;9.226;2022-12-07T01:07:44;11.93;;;7.03;;
3589;SDS011;1809;48.470;9.226;2022-12-07T01:10:11;10.60;;;6.40;;
3589;SDS011;1809;48.470;9.226;2022-12-07T01:12:37;7.50;;;6.37;;
3589;SDS011;1809;48.470;9.226;2022-12-07T01:15:02;14.30;;;7.47;;
3589;SDS011;1809;48.470;9.226;2022-12-07T01:17:28;11.40;;;6.97;;
3589;SDS011;1809;48.470;9.226;2022-12-07T01:19:53;8.03;;;6.23;;
3589;SDS011;1809;48.470;9.226;2022-12-07T01:22:18;8.37;;;6.20;;
3589;SDS011;1809;48.470;9.226;2022-12-07T01:24:44;9.37;;;6.20;;
3589;SDS011;1809;48.470;9.226;2022-12-07T01:27:11;15.03;;;7.37;;
3589;SDS011;1809;48.470;9.226;2022-12-07T01:29:37;7.30;;;5.70;;
3589;SDS011;1809;48.470;9.226;2022-12-07T01:32:02;7.83;;;5.87;;
3589;SDS011;1809;48.470;9.226;2022-12-07T01:34:27;7.53;;;6.17;;
3589;SDS011;1809;48.470;9.226;2022-12-07T01:36:53;11.07;;;6.40;;
3589;SDS011;1809;48.470;9.226;2022-12-07T01:39:18;11.47;;;6.50;;
3589;SDS011;1809;48.470;9.226;2022-12-07T01:41:43;7.33;;;5.90;;
3589;SDS011;1809;48.470;9.226;2022-12-07T01:44:11;8.10;;;6.33;;
3589;SDS011;1809;48.470;9.226;2022-12-07T01:46:49;11.23;;;7.03;;
3589;SDS011;1809;48.470;9.226;2022-12-07T01:49:32;11.73;;;6.23;;
3589;SDS011;1809;48.470;9.226;2022-12-07T01:52:22;8.87;;;6.40;;
3589;SDS011;1809;48.470;9.226;2022-12-07T01:54:55;10.30;;;6.27;;
3589;SDS011;1809;48.470;9.226;2022-12-07T01:57:23;7.47;;;6.07;;
3589;SDS011;1809;48.470;9.226;2022-12-07T01:59:49;7.77;;;6.53;;
3589;SDS011;1809;48.470;9.226;2022-12-07T02:02:25;7.80;;;6.23;;
3589;SDS011;1809;48.470;9.226;2022-12-07T02:04:55;12.93;;;6.43;;
3589;SDS011;1809;48.470;9.226;2022-12-07T02:07:22;8.80;;;5.67;;
3589;SDS011;1809;48.470;9.226;2022-12-07T02:09:48;10.13;;;5.83;;
3589;SDS011;1809;48.470;9.226;2022-12-07T02:12:14;7.90;;;6.50;;
3589;SDS011;1809;48.470;9.226;2022-12-07T02:14:39;6.50;;;5.90;;
3589;SDS011;1809;48.470;9.226;2022-12-07T02:17:16;8.37;;;6.30;;
3589;SDS011;1809;48.470;9.226;2022-12-07T02:20:23;11.37;;;6.27;;
3589;SDS011;1809;48.470;9.226;2022-12-07T02:31:02;10.17;;;6.10;;
3589;SDS011;1809;48.470;9.226;2022-12-07T02:33:35;9.13;;;6.00;;
3589;SDS011;1809;48.470;9.226;2022-12-07T02:36:12;7.30;;;5.30;;
3589;SDS011;1809;48.470;9.226;2022-12-07T02:38:44;6.70;;;5.97;;
3589;SDS011;1809;48.470;9.226;2022-12-07T02:41:23;6.93;;;6.07;;
3589;SDS011;1809;48.470;9.226;2022-12-07T02:44:01;7.10;;;5.73;;
3589;SDS011;1809;48.470;9.226;2022-12-07T02:46:30;10.80;;;6.37;;
3589;SDS011;1809;48.470;9.226;2022-12-07T02:48:59;8.63;;;5.30;;
3589;SDS011;1809;48.470;9.226;2022-12-07T02:51:29;5.77;;;5.23;;
3589;SDS011;1809;48.470;9.226;2022-12-07T02:53:56;8.27;;;6.33;;
3589;SDS011;1809;48.470;9.226;2022-12-07T02:56:30;6.63;;;6.00;;
3589;SDS011;1809;48.470;9.226;2022-12-07T02:59:22;8.10;;;5.90;;
3589;SDS011;1809;48.470;9.226;2022-12-07T03:15:35;7.80;;;5.03;;
3589;SDS011;1809;48.470;9.226;2022-12-07T03:18:08;11.63;;;5.90;;
3589;SDS011;1809;48.470;9.226;2022-12-07T03:20:36;7.33;;;5.83;;
3589;SDS011;1809;48.470;9.226;2022-12-07T03:23:06;7.70;;;6.17;;
3589;SDS011;1809;48.470;9.226;2022-12-07T03:25:35;9.63;;;7.00;;
3589;SDS011;1809;48.470;9.226;2022-12-07T03:28:06;10.27;;;7.27;;
3589;SDS011;1809;48.470;9.226;2022-12-07T03:30:44;10.77;;;7.33;;
3589;SDS011;1809;48.470;9.226;2022-12-07T03:33:19;7.50;;;6.47;;
3589;SDS011;1809;48.470;9.226;2022-12-07T03:35:56;11.13;;;7.07;;
3589;SDS011;1809;48.470;9.226;2022-12-07T03:39:12;12.67;;;8.30;;
3589;SDS011;1809;48.470;9.226;2022-12-07T03:41:40;9.10;;;7.43;;
3589;SDS011;1809;48.470;9.226;2022-12-07T03:44:06;11.33;;;8.30;;
3589;SDS011;1809;48.470;9.226;2022-12-07T03:51:46;14.00;;;9.97;;
3589;SDS011;1809;48.470;9.226;2022-12-07T03:57:12;11.40;;;8.53;;
3589;SDS011;1809;48.470;9.226;2022-12-07T03:59:38;12.53;;;8.07;;
3589;SDS011;1809;48.470;9.226;2022-12-07T04:02:06;15.63;;;8.03;;
3589;SDS011;1809;48.470;9.226;2022-12-07T04:04:32;12.43;;;9.10;;
3589;SDS011;1809;48.470;9.226;2022-12-07T04:06:59;13.30;;;8.67;;
3589;SDS011;1809;48.470;9.226;2022-12-07T04:09:25;13.77;;;8.80;;
3589;SDS011;1809;48.470;9.226;2022-12-07T04:11:51;16.40;;;8.90;;
3589;SDS011;1809;48.470;9.226;2022-12-07T04:14:16;12.83;;;9.87;;
3589;SDS011;1809;48.470;9.226;2022-12-07T04:16:51;12.40;;;8.53;;
3589;SDS011;1809;48.470;9.226;2022-12-07T04:19:20;10.60;;;7.43;;
3589;SDS011;1809;48.470;9.226;2022-12-07T04:21:46;13.50;;;8.70;;
3589;SDS011;1809;48.470;9.226;2022-12-07T04:24:13;11.97;;;8.67;;
3589;SDS011;1809;48.470;9.226;2022-12-07T04:26:40;12.33;;;8.40;;
3589;SDS011;1809;48.470;9.226;2022-12-07T04:29:06;11.77;;;8.20;;
3589;SDS011;1809;48.470;9.226;2022-12-07T04:31:31;12.50;;;8.23;;
3589;SDS011;1809;48.470;9.226;2022-12-07T04:33:57;13.70;;;8.03;;
3589;SDS011;1809;48.470;9.226;2022-12-07T04:36:22;12.40;;;8.10;;
3589;SDS011;1809;48.470;9.226;2022-12-07T04:38:47;13.37;;;8.80;;
3589;SDS011;1809;48.470;9.226;2022-12-07T04:41:13;11.20;;;8.60;;
3589;SDS011;1809;48.470;9.226;2022-12-07T04:43:38;13.50;;;9.67;;
3589;SDS011;1809;48.470;9.226;2022-12-07T04:46:04;12.03;;;8.93;;
3589;SDS011;1809;48.470;9.226;2022-12-07T04:48:29;12.53;;;9.60;;
3589;SDS011;1809;48.470;9.226;2022-12-07T04:50:55;15.73;;;8.80;;
3589;SDS011;1809;48.470;9.226;2022-12-07T04:53:21;14.23;;;9.37;;
3589;SDS011;1809;48.470;9.226;2022-12-07T04:55:46;15.60;;;10.73;;
3589;SDS011;1809;48.470;9.226;2022-12-07T04:58:12;12.70;;;9.00;;
3589;SDS011;1809;48.470;9.226;2022-12-07T05:00:38;11.80;;;8.57;;
3589;SDS011;1809;48.470;9.226;2022-12-07T05:03:04;10.30;;;8.17;;
3589;SDS011;1809;48.470;9.226;2022-12-07T05:05:29;14.80;;;10.13;;
3589;SDS011;1809;48.470;9.226;2022-12-07T05:07:55;19.00;;;8.83;;
3589;SDS011;1809;48.470;9.226;2022-12-07T05:10:20;15.10;;;9.63;;
3589;SDS011;1809;48.470;9.226;2022-12-07T05:12:46;15.53;;;10.50;;
3589;SDS011;1809;48.470;9.226;2022-12-07T05:15:12;17.47;;;10.20;;
3589;SDS011;1809;48.470;9.226;2022-12-07T05:17:38;17.40;;;10.50;;
3589;SDS011;1809;48.470;9.226;2022-12-07T05:20:04;13.50;;;9.87;;
3589;SDS011;1809;48.470;9.226;2022-12-07T05:22:29;14.77;;;9.97;;
3589;SDS011;1809;48.470;9.226;2022-12-07T05:24:55;15.30;;;10.40;;
3589;SDS011;1809;48.470;9.226;2022-12-07T05:27:21;14.10;;;9.80;;
3589;SDS011;1809;48.470;9.226;2022-12-07T05:29:46;17.33;;;10.57;;
3589;SDS011;1809;48.470;9.226;2022-12-07T05:32:11;17.30;;;11.10;;
3589;SDS011;1809;48.470;9.226;2022-12-07T05:34:37;18.67;;;10.60;;
3589;SDS011;1809;48.470;9.226;2022-12-07T05:37:02;21.83;;;12.67;;
3589;SDS011;1809;48.470;9.226;2022-12-07T05:39:28;16.40;;;10.37;;
3589;SDS011;1809;48.470;9.226;2022-12-07T05:41:53;16.43;;;10.30;;
3589;SDS011;1809;48.470;9.226;2022-12-07T05:44:37;16.50;;;9.30;;
3589;SDS011;1809;48.470;9.226;2022-12-07T05:47:02;15.97;;;8.93;;
3589;SDS011;1809;48.470;9.226;2022-12-07T05:49:28;12.70;;;9.03;;
3589;SDS011;1809;48.470;9.226;2022-12-07T05:51:53;12.40;;;8.60;;
3589;SDS011;1809;48.470;9.226;2022-12-07T05:54:18;16.30;;;9.37;;
3589;SDS011;1809;48.470;9.226;2022-12-07T05:56:44;12.90;;;8.57;;
3589;SDS011;1809;48.470;9.226;2022-12-07T05:59:09;17.83;;;12.00;;
3589;SDS011;1809;48.470;9.226;2022-12-07T06:04:44;14.67;;;9.03;;
3589;SDS011;1809;48.470;9.226;2022-12-07T06:07:11;19.70;;;11.57;;
3589;SDS011;1809;48.470;9.226;2022-12-07T06:09:39;14.87;;;9.53;;
3589;SDS011;1809;48.470;9.226;2022-12-07T06:12:05;14.20;;;10.10;;
3589;SDS011;1809;48.470;9.226;2022-12-07T06:14:50;13.40;;;8.30;;
3589;SDS011;1809;48.470;9.226;2022-12-07T06:17:15;13.60;;;9.20;;
3589;SDS011;1809;48.470;9.226;2022-12-07T06:19:41;16.80;;;10.27;;
3589;SDS011;1809;48.470;9.226;2022-12-07T06:22:07;14.03;;;8.57;;
3589;SDS011;1809;48.470;9.226;2022-12-07T06:24:34;14.10;;;7.03;;
3589;SDS011;1809;48.470;9.226;2022-12-07T06:27:00;11.97;;;8.07;;
3589;SDS011;1809;48.470;9.226;2022-12-07T06:29:25;13.40;;;9.00;;
3589;SDS011;1809;48.470;9.226;2022-12-07T06:31:50;12.00;;;7.17;;
3589;SDS011;1809;48.470;9.226;2022-12-07T06:34:17;10.97;;;8.27;;
3589;SDS011;1809;48.470;9.226;2022-12-07T06:36:44;12.13;;;7.97;;
3589;SDS011;1809;48.470;9.226;2022-12-07T06:39:10;14.03;;;8.50;;
3589;SDS011;1809;48.470;9.226;2022-12-07T06:41:36;10.93;;;7.10;;
3589;SDS011;1809;48.470;9.226;2022-12-07T06:44:02;15.30;;;8.87;;
3589;SDS011;1809;48.470;9.226;2022-12-07T06:46:29;13.00;;;8.10;;
3589;SDS011;1809;48.470;9.226;2022-12-07T06:48:54;12.93;;;8.67;;
3589;SDS011;1809;48.470;9.226;2022-12-07T06:51:19;17.60;;;10.80;;
3589;SDS011;1809;48.470;9.226;2022-12-07T06:53:45;14.67;;;9.73;;
3589;SDS011;1809;48.470;9.226;2022-12-07T06:56:10;15.43;;;9.67;;
3589;SDS011;1809;48.470;9.226;2022-12-07T06:58:35;18.20;;;10.67;;
3589;SDS011;1809;48.470;9.226;2022-12-07T07:01:01;17.70;;;8.30;;
3589;SDS011;1809;48.470;9.226;2022-12-07T07:03:26;12.03;;;8.07;;
3589;SDS011;1809;48.470;9.226;2022-12-07T07:05:52;12.90;;;8.03;;
3589;SDS011;1809;48.470;9.226;2022-12-07T07:08:17;13.83;;;8.80;;
3589;SDS011;1809;48.470;9.226;2022-12-07T07:10:42;21.50;;;9.23;;
3589;SDS011;1809;48.470;9.226;2022-12-07T07:13:08;14.57;;;8.10;;
3589;SDS011;1809;48.470;9.226;2022-12-07T07:15:33;15.47;;;9.07;;
3589;SDS011;1809;48.470;9.226;2022-12-07T07:17:59;12.50;;;7.50;;
3589;SDS011;1809;48.470;9.226;2022-12-07T07:20:25;11.53;;;8.20;;
3589;SDS011;1809;48.470;9.226;2022-12-07T07:22:53;10.87;;;6.80;;
3589;SDS011;1809;48.470;9.226;2022-12-07T07:25:19;10.37;;;7.37;;
3589;SDS011;1809;48.470;9.226;2022-12-07T07:27:44;8.53;;;7.13;;
3589;SDS011;1809;48.470;9.226;2022-12-07T07:30:10;10.03;;;6.70;;
3589;SDS011;1809;48.470;9.226;2022-12-07T07:32:36;11.90;;;7.90;;
3589;SDS011;1809;48.470;9.226;2022-12-07T07:35:01;9.73;;;7.10;;
3589;SDS011;1809;48.470;9.226;2022-12-07T07:37:27;10.47;;;7.27;;
3589;SDS011;1809;48.470;9.226;2022-12-07T07:39:52;9.47;;;8.03;;
3589;SDS011;1809;48.470;9.226;2022-12-07T07:42:18;12.40;;;8.10;;
3589;SDS011;1809;48.470;9.226;2022-12-07T07:44:43;10.77;;;7.23;;
3589;SDS011;1809;48.470;9.226;2022-12-07T07:47:08;13.80;;;8.77;;
3589;SDS011;1809;48.470;9.226;2022-12-07T07:49:34;26.93;;;9.93;;
3589;SDS011;1809;48.470;9.226;2022-12-07T07:51:59;16.97;;;10.50;;
3589;SDS011;1809;48.470;9.226;2022-12-07T07:54:25;14.77;;;10.50;;
3589;SDS011;1809;48.470;9.226;2022-12-07T07:56:50;14.03;;;7.37;;
3589;SDS011;1809;48.470;9.226;2022-12-07T07:59:17;13.80;;;8.10;;
3589;SDS011;1809;48.470;9.226;2022-12-07T08:01:42;17.37;;;10.63;;
3589;SDS011;1809;48.470;9.226;2022-12-07T08:04:07;17.67;;;9.77;;
3589;SDS011;1809;48.470;9.226;2022-12-07T08:06:33;15.87;;;9.23;;
3589;SDS011;1809;48.470;9.226;2022-12-07T08:08:58;17.13;;;8.30;;
3589;SDS011;1809;48.470;9.226;2022-12-07T08:11:24;11.97;;;7.70;;
3589;SDS011;1809;48.470;9.226;2022-12-07T08:13:49;11.50;;;7.30;;
3589;SDS011;1809;48.470;9.226;2022-12-07T08:16:15;13.00;;;7.23;;
3589;SDS011;1809;48.470;9.226;2022-12-07T08:18:41;12.40;;;8.20;;
3589;SDS011;1809;48.470;9.226;2022-12-07T08:21:07;13.23;;;7.87;;
3589;SDS011;1809;48.470;9.226;2022-12-07T08:23:35;15.80;;;7.60;;
3589;SDS011;1809;48.470;9.226;2022-12-07T08:26:01;16.77;;;7.60;;
3589;SDS011;1809;48.470;9.226;2022-12-07T08:28:28;15.00;;;8.03;;
3589;SDS011;1809;48.470;9.226;2022-12-07T08:31:00;12.70;;;7.47;;
3589;SDS011;1809;48.470;9.226;2022-12-07T08:33:30;13.10;;;7.17;;
3589;SDS011;1809;48.470;9.226;2022-12-07T08:35:59;17.80;;;7.10;;
3589;SDS011;1809;48.470;9.226;2022-12-07T08:38:29;8.43;;;6.90;;
3589;SDS011;1809;48.470;9.226;2022-12-07T08:40:55;9.33;;;7.33;;
3589;SDS011;1809;48.470;9.226;2022-12-07T08:43:21;9.70;;;7.77;;
3589;SDS011;1809;48.470;9.226;2022-12-07T08:45:47;14.03;;;8.77;;
3589;SDS011;1809;48.470;9.226;2022-12-07T08:48:16;14.83;;;9.70;;
3589;SDS011;1809;48.470;9.226;2022-12-07T08:50:46;13.50;;;8.27;;
3589;SDS011;1809;48.470;9.226;2022-12-07T08:53:12;12.83;;;8.50;;
3589;SDS011;1809;48.470;9.226;2022-12-07T08:55:38;11.50;;;8.03;;
3589;SDS011;1809;48.470;9.226;2022-12-07T08:58:03;10.57;;;8.43;;
3589;SDS011;1809;48.470;9.226;2022-12-07T09:00:28;18.93;;;10.33;;
3589;SDS011;1809;48.470;9.226;2022-12-07T09:02:54;16.53;;;9.17;;
3589;SDS011;1809;48.470;9.226;2022-12-07T09:05:19;15.10;;;10.03;;
3589;SDS011;1809;48.470;9.226;2022-12-07T09:07:46;11.33;;;7.27;;
3589;SDS011;1809;48.470;9.226;2022-12-07T09:10:17;15.47;;;9.50;;
3589;SDS011;1809;48.470;9.226;2022-12-07T09:12:42;15.93;;;9.80;;
3589;SDS011;1809;48.470;9.226;2022-12-07T09:15:08;22.63;;;9.00;;
3589;SDS011;1809;48.470;9.226;2022-12-07T09:17:34;15.80;;;8.10;;
3589;SDS011;1809;48.470;9.226;2022-12-07T09:20:01;14.57;;;9.40;;
3589;SDS011;1809;48.470;9.226;2022-12-07T09:22:30;19.10;;;8.90;;
3589;SDS011;1809;48.470;9.226;2022-12-07T09:24:56;12.37;;;7.60;;
3589;SDS011;1809;48.470;9.226;2022-12-07T09:27:22;11.63;;;6.57;;
3589;SDS011;1809;48.470;9.226;2022-12-07T09:29:47;8.80;;;5.70;;
3589;SDS011;1809;48.470;9.226;2022-12-07T09:32:13;8.67;;;6.20;;
3589;SDS011;1809;48.470;9.226;2022-12-07T09:34:38;7.43;;;5.00;;
3589;SDS011;1809;48.470;9.226;2022-12-07T09:37:03;5.90;;;5.20;;
3589;SDS011;1809;48.470;9.226;2022-12-07T09:39:29;7.40;;;5.10;;
3589;SDS011;1809;48.470;9.226;2022-12-07T09:41:56;5.13;;;4.60;;
3589;SDS011;1809;48.470;9.226;2022-12-07T09:44:23;5.47;;;4.90;;
3589;SDS011;1809;48.470;9.226;2022-12-07T09:46:50;6.17;;;5.10;;
3589;SDS011;1809;48.470;9.226;2022-12-07T09:49:18;5.03;;;4.57;;
3589;SDS011;1809;48.470;9.226;2022-12-07T09:51:47;8.77;;;6.37;;
3589;SDS011;1809;48.470;9.226;2022-12-07T09:54:13;6.43;;;5.40;;
3589;SDS011;1809;48.470;9.226;2022-12-07T09:56:41;5.13;;;4.63;;
3589;SDS011;1809;48.470;9.226;2022-12-07T09:59:09;7.00;;;5.30;;
3589;SDS011;1809;48.470;9.226;2022-12-07T10:01:42;5.87;;;4.63;;
3589;SDS011;1809;48.470;9.226;2022-12-07T10:04:18;5.93;;;5.27;;
3589;SDS011;1809;48.470;9.226;2022-12-07T10:06:46;7.10;;;5.00;;
3589;SDS011;1809;48.470;9.226;2022-12-07T10:09:13;7.70;;;5.13;;
3589;SDS011;1809;48.470;9.226;2022-12-07T10:14:37;5.00;;;4.50;;
3589;SDS011;1809;48.470;9.226;2022-12-07T10:18:13;7.20;;;5.47;;
3589;SDS011;1809;48.470;9.226;2022-12-07T10:22:36;9.47;;;6.23;;
3589;SDS011;1809;48.470;9.226;2022-12-07T10:25:08;6.00;;;4.13;;
3589;SDS011;1809;48.470;9.226;2022-12-07T10:27:43;4.70;;;4.30;;
3589;SDS011;1809;48.470;9.226;2022-12-07T10:30:12;6.50;;;3.90;;
3589;SDS011;1809;48.470;9.226;2022-12-07T10:32:40;4.30;;;3.90;;
3589;SDS011;1809;48.470;9.226;2022-12-07T10:35:19;4.90;;;4.40;;
3589;SDS011;1809;48.470;9.226;2022-12-07T10:37:47;3.93;;;3.37;;
3589;SDS011;1809;48.470;9.226;2022-12-07T10:40:30;3.90;;;3.40;;
3589;SDS011;1809;48.470;9.226;2022-12-07T10:43:21;4.10;;;3.80;;
3589;SDS011;1809;48.470;9.226;2022-12-07T10:45:58;5.10;;;3.97;;
3589;SDS011;1809;48.470;9.226;2022-12-07T10:51:37;3.17;;;2.87;;
3589;SDS011;1809;48.470;9.226;2022-12-07T10:54:12;3.43;;;3.07;;
3589;SDS011;1809;48.470;9.226;2022-12-07T10:59:52;5.33;;;3.17;;
3589;SDS011;1809;48.470;9.226;2022-12-07T11:05:43;3.73;;;3.40;;
3589;SDS011;1809;48.470;9.226;2022-12-07T11:08:20;3.83;;;3.27;;
3589;SDS011;1809;48.470;9.226;2022-12-07T11:11:09;3.97;;;3.57;;
3589;SDS011;1809;48.470;9.226;2022-12-07T11:16:16;7.10;;;5.70;;
3589;SDS011;1809;48.470;9.226;2022-12-07T11:24:16;4.27;;;3.90;;
3589;SDS011;1809;48.470;9.226;2022-12-07T11:29:29;5.87;;;3.70;;
3589;SDS011;1809;48.470;9.226;2022-12-07T11:37:55;5.17;;;2.97;;
3589;SDS011;1809;48.470;9.226;2022-12-07T11:40:34;5.57;;;4.47;;
3589;SDS011;1809;48.470;9.226;2022-12-07T11:43:05;5.13;;;4.30;;
3589;SDS011;1809;48.470;9.226;2022-12-07T11:45:41;7.23;;;4.57;;
3589;SDS011;1809;48.470;9.226;2022-12-07T11:50:56;4.27;;;3.87;;
3589;SDS011;1809;48.470;9.226;2022-12-07T11:53:28;8.23;;;4.70;;
3589;SDS011;1809;48.470;9.226;2022-12-07T11:56:11;7.80;;;4.53;;
3589;SDS011;1809;48.470;9.226;2022-12-07T12:17:04;4.27;;;3.87;;
3589;SDS011;1809;48.470;9.226;2022-12-07T12:22:44;4.60;;;4.20;;
3589;SDS011;1809;48.470;9.226;2022-12-07T12:25:36;4.60;;;4.20;;
3589;SDS011;1809;48.470;9.226;2022-12-07T12:28:18;11.83;;;5.70;;
3589;SDS011;1809;48.470;9.226;2022-12-07T12:30:45;5.87;;;4.93;;
3589;SDS011;1809;48.470;9.226;2022-12-07T12:33:34;6.70;;;3.97;;
3589;SDS011;1809;48.470;9.226;2022-12-07T12:44:01;4.40;;;3.67;;
3589;SDS011;1809;48.470;9.226;2022-12-07T12:51:43;6.40;;;4.00;;
3589;SDS011;1809;48.470;9.226;2022-12-07T12:56:47;5.00;;;3.40;;
3589;SDS011;1809;48.470;9.226;2022-12-07T12:59:28;5.10;;;3.60;;
3589;SDS011;1809;48.470;9.226;2022-12-07T13:15:38;12.97;;;7.10;;
3589;SDS011;1809;48.470;9.226;2022-12-07T13:23:23;4.20;;;3.40;;
3589;SDS011;1809;48.470;9.226;2022-12-07T13:25:54;3.17;;;2.93;;
3589;SDS011;1809;48.470;9.226;2022-12-07T13:28:26;11.40;;;7.20;;
3589;SDS011;1809;48.470;9.226;2022-12-07T13:31:03;11.33;;;5.40;;
3589;SDS011;1809;48.470;9.226;2022-12-07T13:33:30;5.40;;;4.30;;
3589;SDS011;1809;48.470;9.226;2022-12-07T13:35:56;5.70;;;4.50;;
3589;SDS011;1809;48.470;9.226;2022-12-07T13:38:27;5.33;;;3.07;;
3589;SDS011;1809;48.470;9.226;2022-12-07T13:41:16;3.80;;;3.40;;
3589;SDS011;1809;48.470;9.226;2022-12-07T13:46:26;3.93;;;3.27;;
3589;SDS011;1809;48.470;9.226;2022-12-07T13:48:59;3.47;;;3.17;;
3589;SDS011;1809;48.470;9.226;2022-12-07T13:51:25;4.50;;;3.80;;
3589;SDS011;1809;48.470;9.226;2022-12-07T13:54:00;4.33;;;3.50;;
3589;SDS011;1809;48.470;9.226;2022-12-07T13:56:33;3.63;;;3.30;;
3589;SDS011;1809;48.470;9.226;2022-12-07T13:59:00;3.70;;;2.97;;
3589;SDS011;1809;48.470;9.226;2022-12-07T14:01:26;4.03;;;3.63;;
3589;SDS011;1809;48.470;9.226;2022-12-07T14:03:52;3.57;;;3.10;;
3589;SDS011;1809;48.470;9.226;2022-12-07T14:06:22;11.13;;;6.63;;
3589;SDS011;1809;48.470;9.226;2022-12-07T14:08:50;3.87;;;3.50;;
3589;SDS011;1809;48.470;9.226;2022-12-07T14:11:30;5.77;;;4.40;;
3589;SDS011;1809;48.470;9.226;2022-12-07T14:13:57;5.80;;;3.50;;
3589;SDS011;1809;48.470;9.226;2022-12-07T14:16:34;6.87;;;3.73;;
3589;SDS011;1809;48.470;9.226;2022-12-07T14:19:05;4.47;;;4.03;;
3589;SDS011;1809;48.470;9.226;2022-12-07T14:22:05;5.70;;;4.90;;
3589;SDS011;1809;48.470;9.226;2022-12-07T14:24:33;4.50;;;3.43;;
3589;SDS011;1809;48.470;9.226;2022-12-07T14:27:15;3.47;;;3.20;;
3589;SDS011;1809;48.470;9.226;2022-12-07T14:29:42;5.20;;;4.43;;
3589;SDS011;1809;48.470;9.226;2022-12-07T14:32:29;4.20;;;3.50;;
3589;SDS011;1809;48.470;9.226;2022-12-07T14:35:07;3.20;;;3.00;;
3589;SDS011;1809;48.470;9.226;2022-12-07T14:37:35;4.30;;;3.90;;
3589;SDS011;1809;48.470;9.226;2022-12-07T14:40:02;6.73;;;4.80;;
3589;SDS011;1809;48.470;9.226;2022-12-07T14:42:28;7.67;;;4.97;;
3589;SDS011;1809;48.470;9.226;2022-12-07T14:44:55;5.47;;;4.20;;
3589;SDS011;1809;48.470;9.226;2022-12-07T14:47:22;5.77;;;4.50;;
3589;SDS011;1809;48.470;9.226;2022-12-07T14:49:47;6.43;;;4.10;;
3589;SDS011;1809;48.470;9.226;2022-12-07T14:52:13;5.10;;;4.60;;
3589;SDS011;1809;48.470;9.226;2022-12-07T14:54:42;4.77;;;4.20;;
3589;SDS011;1809;48.470;9.226;2022-12-07T14:57:08;6.40;;;4.00;;
3589;SDS011;1809;48.470;9.226;2022-12-07T14:59:35;4.57;;;3.30;;
3589;SDS011;1809;48.470;9.226;2022-12-07T15:02:00;5.27;;;4.00;;
3589;SDS011;1809;48.470;9.226;2022-12-07T15:04:25;6.67;;;4.23;;
3589;SDS011;1809;48.470;9.226;2022-12-07T15:06:55;4.10;;;3.70;;
3589;SDS011;1809;48.470;9.226;2022-12-07T15:09:29;4.67;;;3.90;;
3589;SDS011;1809;48.470;9.226;2022-12-07T15:11:54;5.83;;;4.13;;
3589;SDS011;1809;48.470;9.226;2022-12-07T15:14:19;11.47;;;4.17;;
3589;SDS011;1809;48.470;9.226;2022-12-07T15:16:45;7.43;;;4.77;;
3589;SDS011;1809;48.470;9.226;2022-12-07T15:19:12;11.33;;;6.17;;
3589;SDS011;1809;48.470;9.226;2022-12-07T15:21:39;6.00;;;4.43;;
3589;SDS011;1809;48.470;9.226;2022-12-07T15:24:05;6.63;;;4.50;;
3589;SDS011;1809;48.470;9.226;2022-12-07T15:26:30;6.53;;;5.30;;
3589;SDS011;1809;48.470;9.226;2022-12-07T15:28:56;8.10;;;5.60;;
3589;SDS011;1809;48.470;9.226;2022-12-07T15:31:22;10.93;;;5.80;;
3589;SDS011;1809;48.470;9.226;2022-12-07T15:33:47;8.93;;;4.40;;
3589;SDS011;1809;48.470;9.226;2022-12-07T15:36:20;7.73;;;5.20;;
3589;SDS011;1809;48.470;9.226;2022-12-07T15:38:47;6.63;;;5.83;;
3589;SDS011;1809;48.470;9.226;2022-12-07T15:41:17;6.03;;;4.87;;
3589;SDS011;1809;48.470;9.226;2022-12-07T15:43:42;6.30;;;5.53;;
3589;SDS011;1809;48.470;9.226;2022-12-07T15:46:34;25.13;;;12.87;;
3589;SDS011;1809;48.470;9.226;2022-12-07T15:49:01;14.53;;;8.77;;
3589;SDS011;1809;48.470;9.226;2022-12-07T15:51:26;7.60;;;5.20;;
3589;SDS011;1809;48.470;9.226;2022-12-07T15:53:52;11.00;;;6.00;;
3589;SDS011;1809;48.470;9.226;2022-12-07T15:56:20;9.43;;;7.43;;
3589;SDS011;1809;48.470;9.226;2022-12-07T15:58:46;11.97;;;6.73;;
3589;SDS011;1809;48.470;9.226;2022-12-07T16:01:12;12.63;;;7.43;;
3589;SDS011;1809;48.470;9.226;2022-12-07T16:03:38;11.20;;;7.03;;
3589;SDS011;1809;48.470;9.226;2022-12-07T16:06:03;11.13;;;5.93;;
3589;SDS011;1809;48.470;9.226;2022-12-07T16:08:29;7.00;;;5.50;;
3589;SDS011;1809;48.470;9.226;2022-12-07T16:10:54;11.27;;;7.43;;
3589;SDS011;1809;48.470;9.226;2022-12-07T16:13:20;11.17;;;6.33;;
3589;SDS011;1809;48.470;9.226;2022-12-07T16:15:45;9.40;;;6.17;;
3589;SDS011;1809;48.470;9.226;2022-12-07T16:18:11;13.83;;;8.20;;
3589;SDS011;1809;48.470;9.226;2022-12-07T16:20:36;15.47;;;11.20;;
3589;SDS011;1809;48.470;9.226;2022-12-07T16:23:02;19.03;;;11.23;;
3589;SDS011;1809;48.470;9.226;2022-12-07T16:25:27;16.03;;;8.73;;
3589;SDS011;1809;48.470;9.226;2022-12-07T16:27:53;12.37;;;7.80;;
3589;SDS011;1809;48.470;9.226;2022-12-07T16:30:19;13.93;;;8.97;;
3589;SDS011;1809;48.470;9.226;2022-12-07T16:32:44;10.83;;;8.10;;
3589;SDS011;1809;48.470;9.226;2022-12-07T16:35:10;12.90;;;7.43;;
3589;SDS011;1809;48.470;9.226;2022-12-07T16:37:36;10.90;;;6.50;;
3589;SDS011;1809;48.470;9.226;2022-12-07T16:40:02;9.67;;;6.50;;
3589;SDS011;1809;48.470;9.226;2022-12-07T16:42:32;10.57;;;6.97;;
3589;SDS011;1809;48.470;9.226;2022-12-07T16:44:58;11.87;;;8.83;;
3589;SDS011;1809;48.470;9.226;2022-12-07T16:47:27;12.90;;;8.43;;
3589;SDS011;1809;48.470;9.226;2022-12-07T16:50:00;12.33;;;8.30;;
3589;SDS011;1809;48.470;9.226;2022-12-07T16:52:27;13.03;;;8.27;;
3589;SDS011;1809;48.470;9.226;2022-12-07T16:54:52;11.40;;;7.47;;
3589;SDS011;1809;48.470;9.226;2022-12-07T16:57:18;7.87;;;6.50;;
3589;SDS011;1809;48.470;9.226;2022-12-07T17:02:19;8.77;;;6.87;;
3589;SDS011;1809;48.470;9.226;2022-12-07T17:04:45;10.57;;;7.57;;
3589;SDS011;1809;48.470;9.226;2022-12-07T17:07:10;42.70;;;22.30;;
3589;SDS011;1809;48.470;9.226;2022-12-07T17:09:36;30.90;;;15.77;;
3589;SDS011;1809;48.470;9.226;2022-12-07T17:12:02;13.70;;;9.93;;
3589;SDS011;1809;48.470;9.226;2022-12-07T17:14:27;9.30;;;7.30;;
3589;SDS011;1809;48.470;9.226;2022-12-07T17:17:11;14.23;;;8.10;;
3589;SDS011;1809;48.470;9.226;2022-12-07T17:19:36;11.60;;;7.80;;
3589;SDS011;1809;48.470;9.226;2022-12-07T17:22:02;9.80;;;7.53;;
3589;SDS011;1809;48.470;9.226;2022-12-07T17:24:30;8.90;;;6.93;;
3589;SDS011;1809;48.470;9.226;2022-12-07T17:26:55;9.87;;;7.33;;